Time;durP1;ratioP1;P1;durP2;ratioP2;P2;SDS_P1;SDS_P2;PMS_P1;PMS_P2;Temp;Humidity;BMP_temperature;BMP_pressure;BME280_temperature;BME280_humidity;BME280_pressure;Samples;Min_cycle;Max_cycle;Signal;HPM_P1;HPM_P2
2022/03/25 00:01:03;;;;;;;;;;;;;;;31.10;15.63;100834.59;5095882;28;901;-31
2022/03/25 00:03:28;;;;;;;;;;;;;;;29.76;15.34;100844.75;5094894;28;904;-29
2022/03/25 00:05:54;;;;;;;;;;;;;;;28.51;16.11;100834.00;5097424;28;832;-28
2022/03/25 00:08:19;;;;;;;;;;;;;;;29.32;16.23;100837.53;5096287;28;1020;-31
2022/03/25 00:10:44;;;;;;;;;;;;;;;30.17;15.19;100822.22;5096775;28;852;-30
2022/03/25 00:13:10;;;;;;;;;;;;;;;29.01;15.76;100822.44;5090357;28;765;-30
2022/03/25 00:15:36;;;;;;;;;;;;;;;28.10;16.70;100829.94;5093777;28;879;-32
2022/03/25 00:18:01;;;;;;;;;;;;;;;27.71;17.32;100827.31;5091573;28;1488;-32
2022/03/25 00:20:26;;;;;;;;;;;;;;;27.59;17.34;100839.59;5095400;28;1905;-29
2022/03/25 00:22:52;;;;;;;;;;;;;;;27.41;17.75;100832.66;5097097;28;888;-29
2022/03/25 00:25:17;;;;;;;;;;;;;;;27.36;17.87;100830.50;5096578;28;821;-29
2022/03/25 00:27:42;;;;;;;;;;;;;;;27.26;17.54;100835.31;5095059;28;888;-30
2022/03/25 00:30:08;;;;;;;;;;;;;;;27.80;17.06;100835.34;5096707;28;1064;-29
2022/03/25 00:32:33;;;;;;;;;;;;;;;28.48;16.21;100834.38;5094382;28;960;-28
2022/03/25 00:34:59;;;;;;;;;;;;;;;27.61;17.14;100838.38;5089534;28;888;-31
2022/03/25 00:37:25;;;;;;;;;;;;;;;27.30;17.63;100835.78;5096654;28;830;-30
2022/03/25 00:39:50;;;;;;;;;;;;;;;27.16;17.58;100842.84;5088575;28;1959;-31
2022/03/25 00:42:16;;;;;;;;;;;;;;;27.13;17.59;100849.44;5096608;28;885;-30
2022/03/25 00:44:41;;;;;;;;;;;;;;;27.03;17.54;100846.97;5096317;28;773;-31
2022/03/25 00:47:07;;;;;;;;;;;;;;;27.00;17.72;100850.00;5077450;28;1213;-32
2022/03/25 00:49:32;;;;;;;;;;;;;;;26.96;18.02;100856.81;5075872;28;970;-29
2022/03/25 00:51:58;;;;;;;;;;;;;;;26.85;18.12;100858.88;5083795;28;841;-27
2022/03/25 00:54:23;;;;;;;;;;;;;;;27.88;17.11;100865.00;5096598;28;789;-30
2022/03/25 00:56:49;;;;;;;;;;;;;;;27.26;17.42;100873.13;5080337;28;1166;-29
2022/03/25 00:59:15;;;;;;;;;;;;;;;27.09;18.21;100870.56;5059094;28;1979;-28
2022/03/25 01:01:40;;;;;;;;;;;;;;;26.89;18.02;100876.38;5077193;28;835;-31
2022/03/25 01:04:05;;;;;;;;;;;;;;;26.82;18.29;100874.59;5075792;28;982;-27
2022/03/25 01:06:31;;;;;;;;;;;;;;;26.67;18.47;100877.22;5096099;28;865;-28
2022/03/25 01:08:57;;;;;;;;;;;;;;;26.71;18.47;100882.06;5096304;28;908;-28
2022/03/25 01:11:22;;;;;;;;;;;;;;;26.69;18.54;100877.88;5096095;28;750;-32
2022/03/25 01:13:48;;;;;;;;;;;;;;;26.69;18.39;100880.56;5096112;28;821;-29
2022/03/25 01:16:13;;;;;;;;;;;;;;;27.36;18.00;100872.91;5095748;28;868;-31
2022/03/25 01:18:39;;;;;;;;;;;;;;;26.64;18.65;100875.72;5073032;28;1901;-28
2022/03/25 01:21:04;;;;;;;;;;;;;;;26.64;18.71;100873.00;5095694;28;870;-28
2022/03/25 01:23:29;;;;;;;;;;;;;;;26.68;18.47;100874.31;5096112;28;802;-29
2022/03/25 01:25:55;;;;;;;;;;;;;;;26.65;18.70;100870.13;5096013;28;722;-30
2022/03/25 01:28:20;;;;;;;;;;;;;;;26.70;18.36;100874.16;5095138;28;809;-30
2022/03/25 01:30:46;;;;;;;;;;;;;;;26.61;18.58;100866.09;5090508;28;807;-31
2022/03/25 01:33:11;;;;;;;;;;;;;;;26.65;18.39;100872.00;5095068;28;815;-31
2022/03/25 01:35:37;;;;;;;;;;;;;;;26.60;18.57;100869.81;5100380;28;896;-27
2022/03/25 01:38:02;;;;;;;;;;;;;;;26.54;18.49;100878.63;5099720;28;861;-27
2022/03/25 01:40:27;;;;;;;;;;;;;;;26.57;18.27;100880.13;5099887;28;1967;-29
2022/03/25 01:42:53;;;;;;;;;;;;;;;26.71;18.38;100882.06;5088050;28;839;-30
2022/03/25 01:45:32;;;;;;;;;;;;;;;27.62;17.60;100890.56;5095076;28;992;-29
2022/03/25 01:47:58;;;;;;;;;;;;;;;27.93;17.25;100891.47;5083244;28;833;-32
2022/03/25 01:50:23;;;;;;;;;;;;;;;28.44;16.65;100889.91;5099485;28;806;-28
2022/03/25 01:52:49;;;;;;;;;;;;;;;28.95;16.40;100893.59;5100029;28;837;-29
2022/03/25 01:55:16;;;;;;;;;;;;;;;29.40;15.92;100895.31;5097370;28;791;-31
2022/03/25 01:57:41;;;;;;;;;;;;;;;29.22;15.79;100902.03;5099842;28;1186;-28
2022/03/25 02:00:07;;;;;;;;;;;;;;;29.71;15.41;100905.00;5081540;28;1906;-28
2022/03/25 02:02:32;;;;;;;;;;;;;;;28.00;16.84;100900.53;5097800;28;863;-31
2022/03/25 02:04:59;;;;;;;;;;;;;;;27.24;17.54;100899.50;5072583;28;790;-28
2022/03/25 02:07:24;;;;;;;;;;;;;;;28.27;16.78;100898.22;5098926;28;808;-28
2022/03/25 02:09:50;;;;;;;;;;;;;;;28.90;16.47;100904.19;5094480;28;814;-29
2022/03/25 02:12:15;;;;;;;;;;;;;;;29.48;15.85;100906.00;5099454;28;936;-28
2022/03/25 02:14:41;;;;;;;;;;;;;;;29.70;15.55;100917.69;5080524;28;978;-29
2022/03/25 02:17:06;;;;;;;;;;;;;;;29.96;15.26;100918.09;5099161;28;810;-28
2022/03/25 02:19:31;;;;;;;;;;;;;;;29.84;15.28;100919.66;5094982;28;1969;-28
2022/03/25 02:21:57;;;;;;;;;;;;;;;27.84;17.04;100918.59;5097420;28;832;-29
2022/03/25 02:24:22;;;;;;;;;;;;;;;27.73;17.36;100903.66;5073145;28;884;-30
2022/03/25 02:26:48;;;;;;;;;;;;;;;28.59;16.85;100915.06;5079766;28;896;-27
2022/03/25 02:29:14;;;;;;;;;;;;;;;28.05;16.90;100921.59;5079659;28;821;-29
2022/03/25 02:31:40;;;;;;;;;;;;;;;27.29;17.78;100921.41;5080162;28;829;-27
2022/03/25 02:34:06;;;;;;;;;;;;;;;27.46;17.42;100932.09;5086237;28;769;-27
2022/03/25 02:36:36;;;;;;;;;;;;;;;27.80;17.45;100928.09;5098495;28;821;-28
2022/03/25 02:39:01;;;;;;;;;;;;;;;27.96;17.60;100926.28;5097715;28;1973;-30
2022/03/25 02:41:26;;;;;;;;;;;;;;;28.16;17.14;100931.94;5099120;28;799;-30
2022/03/25 02:43:52;;;;;;;;;;;;;;;28.24;16.91;100928.34;5098857;28;849;-28
2022/03/25 02:46:17;;;;;;;;;;;;;;;28.26;16.96;100934.38;5089991;28;1044;-30
2022/03/25 02:48:42;;;;;;;;;;;;;;;28.80;16.97;100934.25;5092213;28;871;-28
2022/03/25 02:51:07;;;;;;;;;;;;;;;28.49;17.03;100941.59;5098815;28;758;-28
2022/03/25 02:53:33;;;;;;;;;;;;;;;27.82;17.61;100917.09;5099062;28;789;-28
2022/03/25 02:55:58;;;;;;;;;;;;;;;27.17;18.33;100939.88;5098678;28;849;-31
2022/03/25 02:58:24;;;;;;;;;;;;;;;26.95;18.26;100920.75;5096830;28;1101;-27
2022/03/25 03:00:49;;;;;;;;;;;;;;;26.86;18.84;100940.72;5092093;28;1975;-28
2022/03/25 03:03:14;;;;;;;;;;;;;;;26.76;18.80;100936.34;5092839;28;883;-27
2022/03/25 03:05:40;;;;;;;;;;;;;;;26.68;18.87;100938.25;5098566;28;785;-29
2022/03/25 03:08:06;;;;;;;;;;;;;;;26.70;18.88;100938.91;5098271;28;885;-28
2022/03/25 03:10:31;;;;;;;;;;;;;;;27.23;18.32;100957.22;5098374;28;746;-32
2022/03/25 03:12:58;;;;;;;;;;;;;;;27.94;17.84;100928.31;5090756;28;876;-29
2022/03/25 03:15:24;;;;;;;;;;;;;;;28.33;17.30;100958.84;5098163;28;793;-28
2022/03/25 03:17:50;;;;;;;;;;;;;;;28.21;17.65;100959.28;5095185;28;843;-28
2022/03/25 03:20:16;;;;;;;;;;;;;;;27.24;18.31;100934.59;5097586;28;1898;-27
2022/03/25 03:22:42;;;;;;;;;;;;;;;27.43;18.42;100963.00;5098846;28;913;-31
2022/03/25 03:25:08;;;;;;;;;;;;;;;28.01;17.80;100956.28;5091417;28;849;-27
2022/03/25 03:27:33;;;;;;;;;;;;;;;27.65;18.16;100948.81;5097505;28;845;-29
2022/03/25 03:29:59;;;;;;;;;;;;;;;26.94;19.09;100964.13;5097930;28;837;-27
2022/03/25 03:32:25;;;;;;;;;;;;;;;26.78;19.10;100961.31;5097391;28;864;-27
2022/03/25 03:34:51;;;;;;;;;;;;;;;26.70;19.44;100971.28;5085687;28;1030;-27
2022/03/25 03:37:16;;;;;;;;;;;;;;;26.58;19.37;100984.31;5065611;28;838;-32
2022/03/25 03:39:41;;;;;;;;;;;;;;;26.60;19.39;100983.13;5097484;28;1955;-27
2022/03/25 03:42:08;;;;;;;;;;;;;;;26.61;19.36;100981.28;5097916;28;774;-30
2022/03/25 03:44:35;;;;;;;;;;;;;;;27.06;18.82;100975.41;5097729;28;829;-30
2022/03/25 03:47:00;;;;;;;;;;;;;;;26.78;19.39;100993.69;5078925;28;1008;-28
2022/03/25 03:49:26;;;;;;;;;;;;;;;26.38;19.67;100988.25;5086733;28;908;-27
2022/03/25 03:51:51;;;;;;;;;;;;;;;26.47;19.40;100983.69;5096426;28;790;-29
2022/03/25 03:54:16;;;;;;;;;;;;;;;26.55;18.83;100988.22;5097534;28;773;-30
2022/03/25 03:56:42;;;;;;;;;;;;;;;26.56;19.26;101005.25;5097111;28;1134;-30
2022/03/25 03:59:07;;;;;;;;;;;;;;;26.49;19.42;101003.22;5097551;28;1905;-29
2022/03/25 04:01:33;;;;;;;;;;;;;;;26.44;19.49;101008.31;5097367;28;740;-32
2022/03/25 04:03:58;;;;;;;;;;;;;;;26.45;19.74;101010.00;5086800;28;845;-27
2022/03/25 04:06:23;;;;;;;;;;;;;;;26.43;19.49;101008.47;5097379;28;776;-27
2022/03/25 04:08:49;;;;;;;;;;;;;;;26.72;19.13;101007.06;5096987;28;833;-29
2022/03/25 04:11:15;;;;;;;;;;;;;;;26.61;19.74;101006.41;5097257;28;774;-30
2022/03/25 04:13:40;;;;;;;;;;;;;;;26.15;20.29;101010.53;5097606;28;845;-30
2022/03/25 04:16:05;;;;;;;;;;;;;;;26.29;20.14;101011.66;5094666;28;1008;-29
2022/03/25 04:18:31;;;;;;;;;;;;;;;26.32;19.87;101007.81;5087703;28;1898;-29
2022/03/25 04:20:56;;;;;;;;;;;;;;;26.33;19.46;101009.50;5059485;28;1467;-29
2022/03/25 04:23:22;;;;;;;;;;;;;;;26.40;19.65;101005.13;5074861;28;1175;-33
2022/03/25 04:25:47;;;;;;;;;;;;;;;25.37;14.13;101004.53;5077942;28;833;-29
2022/03/25 04:28:12;;;;;;;;;;;;;;;24.48;14.04;101000.28;5072946;28;904;-28
2022/03/25 04:30:37;;;;;;;;;;;;;;;24.21;13.16;101008.34;5096739;28;953;-27
2022/03/25 04:33:03;;;;;;;;;;;;;;;24.14;15.55;100996.50;5086978;28;833;-28
2022/03/25 04:35:28;;;;;;;;;;;;;;;24.16;13.87;101007.94;5095318;28;734;-27
2022/03/25 04:37:54;;;;;;;;;;;;;;;23.74;12.81;101004.91;5076989;28;834;-28
2022/03/25 04:40:19;;;;;;;;;;;;;;;23.45;12.51;101003.28;5075925;28;1918;-27
2022/03/25 04:42:45;;;;;;;;;;;;;;;23.40;12.90;101001.06;5095893;28;769;-27
2022/03/25 04:45:11;;;;;;;;;;;;;;;23.31;13.00;101013.53;5092657;28;968;-28
2022/03/25 04:47:36;;;;;;;;;;;;;;;23.23;12.90;101008.91;5076015;28;853;-29
2022/03/25 04:50:02;;;;;;;;;;;;;;;23.31;12.65;101020.72;5093297;28;877;-28
2022/03/25 04:52:27;;;;;;;;;;;;;;;23.15;12.86;101032.13;5096381;28;844;-28
2022/03/25 04:54:52;;;;;;;;;;;;;;;22.97;12.62;101031.06;5091112;28;849;-28
2022/03/25 04:57:17;;;;;;;;;;;;;;;23.05;13.01;101040.22;5084677;28;1389;-29
2022/03/25 04:59:43;;;;;;;;;;;;;;;23.28;13.62;101047.88;5078865;28;1910;-29
2022/03/25 05:02:10;;;;;;;;;;;;;;;24.03;16.22;101057.56;5076027;28;798;-27
2022/03/25 05:04:35;;;;;;;;;;;;;;;25.09;15.06;101059.47;5084667;28;1001;-30
2022/03/25 05:07:01;;;;;;;;;;;;;;;25.64;15.67;101069.97;5085815;28;810;-27
2022/03/25 05:09:26;;;;;;;;;;;;;;;25.79;16.61;101070.97;5081859;28;1127;-26
2022/03/25 05:11:52;;;;;;;;;;;;;;;26.44;15.51;101073.06;5076045;28;1243;-28
2022/03/25 05:14:18;;;;;;;;;;;;;;;26.51;13.74;101075.88;5076262;28;1235;-30
2022/03/25 05:16:43;;;;;;;;;;;;;;;25.04;15.18;101065.34;5076703;28;901;-26
2022/03/25 05:19:09;;;;;;;;;;;;;;;24.76;16.08;101072.72;5070479;28;1918;-27
2022/03/25 05:21:35;;;;;;;;;;;;;;;25.24;16.12;101080.41;5095958;28;825;-27
2022/03/25 05:24:00;;;;;;;;;;;;;;;26.74;15.19;101073.31;5096252;28;877;-27
2022/03/25 05:26:25;;;;;;;;;;;;;;;27.34;14.69;101074.81;5095979;28;788;-28
2022/03/25 05:28:51;;;;;;;;;;;;;;;27.83;14.34;101075.56;5074673;28;1403;-27
2022/03/25 05:31:16;;;;;;;;;;;;;;;27.75;14.03;101074.63;5076089;28;822;-27
2022/03/25 05:33:41;;;;;;;;;;;;;;;27.47;12.54;101066.13;5083656;28;945;-31
2022/03/25 05:36:07;;;;;;;;;;;;;;;27.38;14.25;101076.13;5076560;28;869;-28
2022/03/25 05:38:32;;;;;;;;;;;;;;;27.84;13.93;101080.78;5076698;28;1893;-27
2022/03/25 05:40:57;;;;;;;;;;;;;;;27.72;13.96;101074.97;5076086;28;853;-28
2022/03/25 05:43:22;;;;;;;;;;;;;;;27.66;13.40;101070.22;5076385;28;813;-29
2022/03/25 05:45:48;;;;;;;;;;;;;;;27.83;13.55;101086.38;5078881;28;846;-29
2022/03/25 05:48:13;;;;;;;;;;;;;;;28.09;13.55;101077.88;5080479;28;880;-28
2022/03/25 05:50:38;;;;;;;;;;;;;;;26.96;14.67;101088.97;5095801;28;956;-27
2022/03/25 05:53:05;;;;;;;;;;;;;;;25.98;15.67;101081.59;5096074;28;953;-30
2022/03/25 05:55:31;;;;;;;;;;;;;;;26.14;15.73;101089.69;5095671;28;852;-28
2022/03/25 05:57:56;;;;;;;;;;;;;;;26.44;15.19;101089.25;5094478;28;1232;-28
2022/03/25 06:00:24;;;;;;;;;;;;;;;27.39;14.62;101094.06;5095539;28;1969;-30
2022/03/25 06:02:50;;;;;;;;;;;;;;;27.95;13.33;101097.63;5092247;28;890;-27
2022/03/25 06:05:15;;;;;;;;;;;;;;;27.64;13.33;101099.31;5076430;28;885;-30
2022/03/25 06:07:43;;;;;;;;;;;;;;;27.30;14.40;101103.19;5076182;28;838;-27
2022/03/25 06:10:09;;;;;;;;;;;;;;;26.38;16.10;101106.94;5073004;28;1285;-28
2022/03/25 06:12:35;;;;;;;;;;;;;;;26.72;15.39;101109.59;5096255;28;915;-27
2022/03/25 06:15:00;;;;;;;;;;;;;;;27.52;13.26;101101.56;5099369;28;826;-30
2022/03/25 06:17:26;;;;;;;;;;;;;;;27.77;12.81;101103.31;5098514;28;831;-26
2022/03/25 06:19:52;;;;;;;;;;;;;;;27.57;11.96;101107.28;5079167;28;1972;-29
2022/03/25 06:22:17;;;;;;;;;;;;;;;25.82;12.08;101098.59;5085114;28;1131;-28
2022/03/25 06:24:42;;;;;;;;;;;;;;;25.56;12.42;101097.66;5086567;28;1009;-28
2022/03/25 06:27:08;;;;;;;;;;;;;;;25.38;13.37;101101.31;5079910;28;737;-28
2022/03/25 06:29:35;;;;;;;;;;;;;;;25.42;13.56;101105.38;5078229;28;1235;-28
2022/03/25 06:32:00;;;;;;;;;;;;;;;25.41;13.66;101092.06;5080123;28;1626;-27
2022/03/25 06:34:25;;;;;;;;;;;;;;;25.40;13.61;101101.16;5089627;28;1052;-29
2022/03/25 06:36:51;;;;;;;;;;;;;;;25.51;13.35;101092.78;5090490;28;916;-29
2022/03/25 06:39:16;;;;;;;;;;;;;;;25.47;13.40;101095.97;5099008;28;1898;-30
2022/03/25 06:41:42;;;;;;;;;;;;;;;25.34;13.61;101104.50;5098882;28;894;-26
2022/03/25 06:44:07;;;;;;;;;;;;;;;25.31;14.07;101097.59;5098587;28;801;-28
2022/03/25 06:46:33;;;;;;;;;;;;;;;25.31;14.32;101100.28;5084331;28;1044;-28
2022/03/25 06:48:58;;;;;;;;;;;;;;;25.30;13.85;101098.59;5089055;28;883;-28
2022/03/25 06:51:24;;;;;;;;;;;;;;;25.79;13.78;101099.78;5098571;28;793;-28
2022/03/25 06:53:49;;;;;;;;;;;;;;;27.05;12.67;101114.94;5098852;28;811;-30
2022/03/25 06:56:14;;;;;;;;;;;;;;;27.18;12.77;101111.69;5079984;28;800;-27
2022/03/25 06:58:40;;;;;;;;;;;;;;;27.59;12.53;101115.22;5098439;28;1901;-28
2022/03/25 07:01:05;;;;;;;;;;;;;;;27.24;12.88;101102.88;5065089;28;1585;-29
2022/03/25 07:03:31;;;;;;;;;;;;;;;26.96;13.34;101103.28;5079068;28;914;-30
2022/03/25 07:05:59;;;;;;;;;;;;;;;27.69;12.72;101099.66;5078343;28;1207;-28
2022/03/25 07:08:25;;;;;;;;;;;;;;;26.52;14.13;101105.41;5062017;28;822;-29
2022/03/25 07:10:50;;;;;;;;;;;;;;;25.94;15.39;101089.22;5078518;28;898;-29
2022/03/25 07:13:16;;;;;;;;;;;;;;;26.55;14.24;101109.63;5080847;28;777;-30
2022/03/25 07:15:41;;;;;;;;;;;;;;;27.17;13.08;101109.16;5098170;28;774;-29
2022/03/25 07:18:06;;;;;;;;;;;;;;;26.24;13.21;101096.81;5090061;28;887;-29
2022/03/25 07:20:32;;;;;;;;;;;;;;;25.85;14.37;101099.13;5097391;28;1906;-29
2022/03/25 07:22:57;;;;;;;;;;;;;;;25.83;15.31;101100.28;5096747;28;857;-27
2022/03/25 07:25:22;;;;;;;;;;;;;;;25.96;15.76;101099.81;5091411;28;1232;-26
2022/03/25 07:27:48;;;;;;;;;;;;;;;25.62;14.28;101099.72;5081430;28;2006;-25
2022/03/25 07:30:13;;;;;;;;;;;;;;;25.31;13.58;101094.88;5098602;28;813;-27
2022/03/25 07:32:39;;;;;;;;;;;;;;;25.26;13.75;101086.44;5095214;28;966;-28
2022/03/25 07:37:40;;;;;;;;;;;;;;;24.51;13.97;100989.19;5774126;22;7022;-30
2022/03/25 07:40:06;;;;;;;;;;;;;;;25.27;13.85;101088.16;5022173;28;1911;-28
2022/03/25 07:42:32;;;;;;;;;;;;;;;25.30;13.79;101087.84;5030174;28;1166;-28
2022/03/25 07:44:57;;;;;;;;;;;;;;;25.17;13.65;101086.41;5034170;28;973;-27
2022/03/25 07:47:23;;;;;;;;;;;;;;;25.05;13.65;101085.88;5030469;28;1254;-28
2022/03/25 07:49:48;;;;;;;;;;;;;;;25.11;13.87;101080.88;5026075;28;1335;-28
2022/03/25 07:52:15;;;;;;;;;;;;;;;25.19;13.40;101075.50;5028429;28;1316;-28
2022/03/25 07:54:43;;;;;;;;;;;;;;;25.26;13.56;101086.44;5040243;28;1163;-29
2022/03/25 07:57:09;;;;;;;;;;;;;;;25.31;15.63;101090.34;5024923;28;1399;-29
2022/03/25 07:59:36;;;;;;;;;;;;;;;25.24;14.99;101088.47;5020554;28;1963;-29
2022/03/25 08:02:02;;;;;;;;;;;;;;;25.26;15.35;101090.00;5021571;28;1042;-29
2022/03/25 08:04:27;;;;;;;;;;;;;;;25.29;14.62;101089.66;5033149;28;1049;-31
2022/03/25 08:06:53;;;;;;;;;;;;;;;25.47;14.82;101086.03;5024721;28;1246;-30
2022/03/25 08:09:18;;;;;;;;;;;;;;;25.36;15.90;101084.47;5032495;28;1041;-30
2022/03/25 08:11:47;;;;;;;;;;;;;;;25.34;14.73;101080.28;5035707;28;1227;-30
2022/03/25 08:14:15;;;;;;;;;;;;;;;25.27;14.56;101077.38;5036804;28;935;-30
2022/03/25 08:16:42;;;;;;;;;;;;;;;25.41;14.44;101078.59;5024727;28;1054;-29
2022/03/25 08:19:07;;;;;;;;;;;;;;;25.28;14.68;101071.84;5021256;28;1969;-30
2022/03/25 08:21:33;;;;;;;;;;;;;;;25.42;14.14;101066.84;5021581;28;1143;-29
2022/03/25 08:29:28;;;;;;;;;;;;;;;25.16;14.57;101065.91;5032231;28;677;-30
2022/03/25 08:31:54;;;;;;;;;;;;;;;25.35;14.38;101068.50;5032534;28;2179;-30
2022/03/25 08:34:22;;;;;;;;;;;;;;;25.29;14.24;101054.66;5024040;28;803;-31
2022/03/25 08:36:48;;;;;;;;;;;;;;;25.34;14.41;101058.72;5021286;28;880;-29
2022/03/25 08:39:13;;;;;;;;;;;;;;;25.60;14.05;101064.03;5024078;28;1988;-30
2022/03/25 08:41:39;;;;;;;;;;;;;;;25.80;14.06;101071.84;5028130;28;1250;-30
2022/03/25 08:44:09;;;;;;;;;;;;;;;25.50;13.93;101061.47;5030746;28;1271;-30
2022/03/25 08:46:35;;;;;;;;;;;;;;;25.74;15.43;101059.03;5029616;28;1350;-30
2022/03/25 08:49:01;;;;;;;;;;;;;;;25.94;14.32;101061.41;5032956;28;1227;-30
2022/03/25 08:51:26;;;;;;;;;;;;;;;25.68;13.62;101063.22;5034829;28;1199;-30
2022/03/25 08:53:53;;;;;;;;;;;;;;;25.85;14.36;101063.25;5022836;28;869;-30
2022/03/25 08:56:19;;;;;;;;;;;;;;;26.02;15.05;101053.31;5023828;28;857;-30
2022/03/25 08:58:44;;;;;;;;;;;;;;;26.02;15.34;101053.31;5030142;28;1898;-30
2022/03/25 09:01:10;;;;;;;;;;;;;;;25.95;15.50;101053.16;5027709;28;845;-30
2022/03/25 09:03:35;;;;;;;;;;;;;;;26.24;15.64;101059.06;5019139;28;869;-30
2022/03/25 09:06:00;;;;;;;;;;;;;;;26.15;15.97;101064.44;5017154;28;896;-30
2022/03/25 09:08:26;;;;;;;;;;;;;;;26.22;15.27;101061.06;5018989;28;879;-30
2022/03/25 09:10:53;;;;;;;;;;;;;;;26.32;14.97;101063.59;5018835;28;853;-30
2022/03/25 09:13:19;;;;;;;;;;;;;;;26.19;14.76;101062.25;5017530;28;787;-30
2022/03/25 09:15:44;;;;;;;;;;;;;;;26.28;14.51;101060.38;5016943;28;833;-30
2022/03/25 09:18:10;;;;;;;;;;;;;;;26.06;15.56;101065.44;5017053;28;828;-30
2022/03/25 09:20:36;;;;;;;;;;;;;;;26.18;16.47;101068.66;5016814;28;1894;-29
2022/03/25 09:23:01;;;;;;;;;;;;;;;26.00;15.70;101063.41;5030146;28;1000;-30
2022/03/25 09:25:26;;;;;;;;;;;;;;;26.10;15.01;101056.03;5032002;28;1282;-29
2022/03/25 09:27:52;;;;;;;;;;;;;;;25.82;16.47;101044.72;5026561;28;1294;-30
2022/03/25 09:30:17;;;;;;;;;;;;;;;25.60;16.47;101053.25;5016928;28;778;-30
2022/03/25 09:32:42;;;;;;;;;;;;;;;25.66;16.11;101047.22;5019529;28;1061;-29
2022/03/25 09:35:11;;;;;;;;;;;;;;;26.10;16.06;101039.00;5023379;28;890;-29
2022/03/25 09:37:37;;;;;;;;;;;;;;;25.96;16.32;101054.81;5016689;28;1443;-29
2022/03/25 09:40:03;;;;;;;;;;;;;;;25.94;15.81;101062.25;5017213;28;1988;-29
2022/03/25 09:42:29;;;;;;;;;;;;;;;26.05;15.51;101058.38;5017324;28;1023;-29
2022/03/25 09:44:54;;;;;;;;;;;;;;;26.01;15.64;101059.69;5034696;28;753;-29
2022/03/25 09:47:20;;;;;;;;;;;;;;;26.09;15.14;101058.88;5033687;28;876;-29
2022/03/25 09:49:46;;;;;;;;;;;;;;;26.12;15.12;101062.09;5025708;28;964;-29
2022/03/25 09:52:11;;;;;;;;;;;;;;;26.09;14.96;101053.50;5020869;28;781;-30
2022/03/25 09:54:36;;;;;;;;;;;;;;;26.04;15.01;101045.91;5020714;28;950;-30
2022/03/25 09:57:02;;;;;;;;;;;;;;;26.15;14.83;101042.03;5021151;28;877;-29
2022/03/25 09:59:27;;;;;;;;;;;;;;;26.08;15.08;101049.09;5039102;28;1964;-29
2022/03/25 10:01:53;;;;;;;;;;;;;;;26.02;15.34;101048.78;5025146;28;963;-28
2022/03/25 10:04:37;;;;;;;;;;;;;;;26.03;15.13;101046.91;5025282;28;1321;-30
2022/03/25 10:07:17;;;;;;;;;;;;;;;26.35;14.99;101055.19;5029916;28;850;-29
2022/03/25 10:09:43;;;;;;;;;;;;;;;26.23;15.17;101046.56;5024415;28;1108;-29
2022/03/25 10:12:24;;;;;;;;;;;;;;;26.22;15.33;101047.59;5024198;28;830;-29
2022/03/25 10:14:51;;;;;;;;;;;;;;;26.17;15.58;101050.78;5022310;28;1017;-29
2022/03/25 10:17:16;;;;;;;;;;;;;;;26.06;15.07;101049.25;5021805;28;845;-26
2022/03/25 10:19:48;;;;;;;;;;;;;;;26.12;15.13;101036.97;5024130;28;1901;-27
2022/03/25 10:22:14;;;;;;;;;;;;;;;25.96;15.38;101040.53;5034234;28;1172;-25
2022/03/25 10:24:40;;;;;;;;;;;;;;;25.95;15.14;101045.06;5032333;28;1263;-26
2022/03/25 10:27:06;;;;;;;;;;;;;;;25.87;15.37;101045.91;5036784;28;1258;-26
2022/03/25 10:29:31;;;;;;;;;;;;;;;25.94;15.38;101038.00;5036504;28;1215;-26
2022/03/25 10:32:10;;;;;;;;;;;;;;;25.88;15.89;101044.88;5038016;28;1226;-27
2022/03/25 10:34:35;;;;;;;;;;;;;;;25.88;15.65;101044.88;5037882;28;998;-26
2022/03/25 10:37:02;;;;;;;;;;;;;;;25.89;16.22;101043.03;5023597;28;1453;-28
2022/03/25 10:39:27;;;;;;;;;;;;;;;25.91;17.05;101049.94;5023246;28;1898;-24
2022/03/25 10:41:56;;;;;;;;;;;;;;;25.90;16.51;101044.72;5027272;28;1500;-26
2022/03/25 10:44:29;;;;;;;;;;;;;;;25.84;16.58;101048.09;5036407;28;1066;-26
2022/03/25 10:46:54;;;;;;;;;;;;;;;25.82;16.93;101047.41;5047912;28;1393;-24
2022/03/25 10:49:20;;;;;;;;;;;;;;;25.82;16.78;101048.25;5019706;28;1083;-24
2022/03/25 10:51:55;;;;;;;;;;;;;;;26.04;16.80;101035.97;5019994;28;781;-23
2022/03/25 10:54:24;;;;;;;;;;;;;;;26.12;16.96;101040.53;5021142;28;964;-26
2022/03/25 10:56:51;;;;;;;;;;;;;;;26.09;16.85;101032.75;5021380;28;1648;-24
2022/03/25 10:59:29;;;;;;;;;;;;;;;26.21;16.86;101044.03;5020548;28;1903;-26
2022/03/25 11:01:55;;;;;;;;;;;;;;;26.12;16.62;101047.75;5032603;28;1164;-24
2022/03/25 11:04:20;;;;;;;;;;;;;;;26.06;16.91;101043.06;5020916;28;1073;-27
2022/03/25 11:06:46;;;;;;;;;;;;;;;26.21;16.99;101040.53;5036169;28;1367;-27
2022/03/25 11:09:12;;;;;;;;;;;;;;;26.15;16.76;101037.47;5019084;28;1456;-28
2022/03/25 11:11:37;;;;;;;;;;;;;;;26.09;17.07;101031.91;5019315;28;777;-30
2022/03/25 11:14:02;;;;;;;;;;;;;;;26.21;16.84;101040.53;5030398;28;1282;-32
2022/03/25 11:16:28;;;;;;;;;;;;;;;25.87;16.81;101043.22;5035691;28;992;-31
2022/03/25 11:18:53;;;;;;;;;;;;;;;25.79;16.79;101033.25;5020249;28;1915;-31
2022/03/25 11:21:18;;;;;;;;;;;;;;;25.89;16.31;101045.75;5017117;28;849;-33
2022/03/25 11:23:47;;;;;;;;;;;;;;;25.54;15.01;101025.09;5022203;28;1375;-31
2022/03/25 11:26:13;;;;;;;;;;;;;;;25.68;15.19;101020.97;5032120;28;1056;-30
2022/03/25 11:28:39;;;;;;;;;;;;;;;25.97;16.17;101028.72;5047850;28;1223;-31
2022/03/25 11:31:05;;;;;;;;;;;;;;;25.92;16.86;101027.34;5030349;28;1090;-31
2022/03/25 11:33:30;;;;;;;;;;;;;;;25.95;16.91;101018.09;5033940;28;1579;-31
2022/03/25 11:36:14;;;;;;;;;;;;;;;26.03;16.74;101012.72;5021741;28;769;-28
2022/03/25 11:38:40;;;;;;;;;;;;;;;25.97;17.17;101005.31;5019884;28;1097;-30
2022/03/25 11:41:21;;;;;;;;;;;;;;;26.02;16.67;101011.03;5032030;28;1906;-32
2022/03/25 11:44:06;;;;;;;;;;;;;;;26.11;17.26;101005.66;5018819;28;805;-30
2022/03/25 11:46:32;;;;;;;;;;;;;;;26.02;17.03;101013.75;5028152;28;1523;-30
2022/03/25 11:49:03;;;;;;;;;;;;;;;25.95;17.08;100999.25;5018366;28;837;-30
2022/03/25 11:51:31;;;;;;;;;;;;;;;25.93;17.33;101003.94;5016796;28;1393;-30
2022/03/25 11:53:57;;;;;;;;;;;;;;;25.98;17.11;101004.28;5026351;28;881;-31
2022/03/25 11:56:22;;;;;;;;;;;;;;;25.98;17.51;101006.97;5018507;28;779;-29
2022/03/25 11:58:54;;;;;;;;;;;;;;;25.94;17.56;101013.75;5017016;28;1902;-29
2022/03/25 12:01:19;;;;;;;;;;;;;;;25.90;17.58;101015.06;5018027;28;889;-30
2022/03/25 12:03:49;;;;;;;;;;;;;;;25.99;17.26;101007.84;5018897;28;1445;-30
2022/03/25 12:06:14;;;;;;;;;;;;;;;26.00;17.28;101023.00;5023919;28;944;-28
2022/03/25 12:08:51;;;;;;;;;;;;;;;25.98;17.31;101017.78;5020080;28;845;-31
2022/03/25 12:11:17;;;;;;;;;;;;;;;26.09;17.51;101008.47;5018942;28;1329;-30
2022/03/25 12:13:52;;;;;;;;;;;;;;;26.11;17.20;101014.56;5017772;28;866;-27
2022/03/25 12:16:36;;;;;;;;;;;;;;;26.03;17.49;101023.50;5022854;28;1338;-27
2022/03/25 12:19:01;;;;;;;;;;;;;;;25.92;17.57;101018.44;5030022;28;1894;-30
2022/03/25 12:21:26;;;;;;;;;;;;;;;25.96;17.39;101019.78;5019742;28;1700;-30
2022/03/25 12:23:55;;;;;;;;;;;;;;;26.07;17.45;101029.41;5035859;28;821;-28
2022/03/25 12:26:29;;;;;;;;;;;;;;;26.03;17.68;101031.59;5036192;28;1460;-29
2022/03/25 12:28:54;;;;;;;;;;;;;;;26.31;17.79;101035.75;5023416;28;806;-28
2022/03/25 12:31:20;;;;;;;;;;;;;;;26.13;17.44;101034.09;5022778;28;882;-30
2022/03/25 12:33:51;;;;;;;;;;;;;;;25.98;17.38;101042.03;5041252;28;1286;-28
2022/03/25 12:36:17;;;;;;;;;;;;;;;26.04;17.55;101051.31;5033739;28;1279;-30
2022/03/25 12:38:44;;;;;;;;;;;;;;;27.38;16.39;101058.09;5022041;28;1337;-30
2022/03/25 12:41:10;;;;;;;;;;;;;;;27.89;16.15;101055.94;5036146;28;1973;-29
2022/03/25 12:43:35;;;;;;;;;;;;;;;26.63;17.13;101061.03;5029553;28;1748;-30
2022/03/25 12:46:07;;;;;;;;;;;;;;;26.30;17.23;101052.97;5035863;28;1581;-28
2022/03/25 12:48:37;;;;;;;;;;;;;;;26.16;17.29;101051.78;5036517;28;830;-29
2022/03/25 12:51:03;;;;;;;;;;;;;;;27.67;16.44;101052.16;5036224;28;880;-29
2022/03/25 12:53:28;;;;;;;;;;;;;;;27.98;15.96;101054.84;5035315;28;845;-29
2022/03/25 12:55:54;;;;;;;;;;;;;;;26.70;17.14;101065.75;5015779;28;1047;-29